• Join FlightAware (Why Join?)
  • Login
  • US Flag 
10:12AM EDT


 

Airport Tracker/Info


-or-


 

Live Flight TrackerFlight Track Log ✈ SWA213 ✈ 08-May-2013 ✈ KDAL - KMSY

Flight Track Log - Related Links

Times and Time Zones

All times are in EDT time to prevent confusion due to time zone crossing. See the SWA213 flight status page for this flight to view local times or setup timezone preferences in your user account.

Time Position Orientation Groundspeed Altitude Reporting Facility
EDT Latitude Longitude Course Direction KTS MPH feet Rate Location/Type
12:06PM 32.7708 -96.7019 119° Southeast 252 290 6,900  Level Fort Worth Center
12:07PM 32.7681 -96.5981 92° East 281 323 9,900 2,340 Climbing Fort Worth Center
12:08PM 32.7653 -96.4994 92° East 312 359 11,600 2,040 Climbing Fort Worth Center
12:09PM 32.7603 -96.3661 93° East 355 409 14,000 2,400 Climbing Fort Worth Center
12:10PM 32.7486 -96.2525 97° East 372 428 16,400 2,340 Climbing Fort Worth Center
12:11PM 32.7264 -96.1119 101° East 388 447 18,700 1,920 Climbing Fort Worth Center
12:12PM 32.7083 -95.9914 100° East 404 465 20,300 1,620 Climbing Fort Worth Center
12:13PM 32.6836 -95.8411 101° East 418 481 22,000 1,500 Climbing Fort Worth Center
12:14PM 32.6633 -95.7106 100° East 437 503 23,400 1,680 Climbing Fort Worth Center
12:15PM 32.6631 -95.5453 90° East 453 521 25,400 1,800 Climbing Fort Worth Center
12:16PM 32.6733 -95.3994 85° East 453 521 27,000 1,260 Climbing Fort Worth Center
12:17PM 32.6792 -95.2439 87° East 453 521 28,000 1,200 Climbing Fort Worth Center
12:18PM 32.6908 -95.0856 85° East 465 535 29,400 1,380 Climbing Fort Worth Center
12:19PM 32.7003 -94.9300 86° East 471 542 30,800 1,500 Climbing Fort Worth Center
12:20PM 32.7014 -94.7767 89° East 471 542 32,500 1,080 Climbing Fort Worth Center
12:21PM 32.6564 -94.6300 110° East 458 527 33,000 240 Climbing Fort Worth Center
12:22PM 32.5867 -94.4992 122° Southeast 464 534 33,000  Level Fort Worth Center
12:23PM 32.5217 -94.3978 127° Southeast 464 534 33,000 360 Level Fort Worth Center
12:24PM 32.4283 -94.2508 127° Southeast 466 536 33,800 960 Climbing Fort Worth Center
12:25PM 32.3500 -94.1256 126° Southeast 471 542 35,000 600 Climbing Fort Worth Center
12:26PM 32.2758 -94.0056 126° Southeast 471 542 35,000  Level Fort Worth Center
12:27PM 32.1994 -93.8806 126° Southeast 471 542 35,000  Level Fort Worth Center
12:29PM 32.0589 -93.6678 128° Southeast 448 516 35,000  Level Houston Center
12:30PM 31.9700 -93.5283 127° Southeast 445 512 35,000  Level Houston Center
12:31PM 31.8944 -93.4122 127° Southeast 447 514 35,000  Level Houston Center
12:32PM 31.8192 -93.2958 127° Southeast 446 513 35,000  Level Houston Center
12:33PM 31.7431 -93.1811 128° Southeast 448 516 35,000  Level Houston Center
12:34PM 31.6661 -93.0619 127° Southeast 454 522 35,000  Level Houston Center
12:35PM 31.5892 -92.9461 128° Southeast 451 519 35,000  Level Houston Center
12:36PM 31.4978 -92.8047 127° Southeast 452 520 35,000  Level Houston Center
12:37PM 31.4192 -92.6867 128° Southeast 456 525 35,000  Level Houston Center
12:38PM 31.3417 -92.5683 127° Southeast 458 527 35,000  Level Houston Center
12:39PM 31.2631 -92.4494 128° Southeast 459 528 35,000  Level Houston Center
12:40PM 31.1833 -92.3303 128° Southeast 462 532 35,000  Level Houston Center
12:41PM 31.1047 -92.2122 128° Southeast 462 532 35,000  Level Houston Center
12:42PM 31.0092 -92.0692 128° Southeast 463 533 35,000 -660 Level Houston Center
12:43PM 30.9408 -91.9667 128° Southeast 461 531 33,700 -2,100 Descending Houston Center
12:44PM 30.8478 -91.8289 128° Southeast 452 520 30,700 -2,580 Descending Houston Center
12:45PM 30.7719 -91.7167 128° Southeast 444 511 28,400 -2,220 Descending Houston Center
12:46PM 30.7003 -91.6086 128° Southeast 427 491 26,200 -2,160 Descending Houston Center
12:47PM 30.6283 -91.5017 128° Southeast 420 483 24,000 -2,160 Descending Houston Center
12:48PM 30.5525 -91.3903 128° Southeast 415 478 21,800 -2,160 Descending Houston Center
12:49PM 30.5003 -91.2786 118° Southeast 399 459 19,600 -2,100 Descending Houston Center
12:50PM 30.4572 -91.1619 113° Southeast 395 455 17,500 -2,160 Descending Houston Center
12:51PM 30.4167 -91.0500 113° Southeast 382 440 15,200 -2,520 Descending Houston Center
12:52PM 30.3708 -90.9272 113° Southeast 379 436 12,600 -2,220 Descending Houston Center
12:53PM 30.3283 -90.8178 114° Southeast 373 429 11,000 -840 Descending Houston Center
12:54PM 30.2925 -90.7228 114° Southeast 319 367 11,000 -480 Level Houston Center
12:55PM 30.2544 -90.6222 114° Southeast 314 361 10,000 -1,500 Descending Houston Center
12:57PM 30.2208 -90.5331 114° Southeast 306 352 7,800 -2,220 Descending Houston Center
12:57PM 30.1864 -90.4403 113° Southeast 318 366 5,900 -1,680 Descending Houston Center
12:58PM 30.1525 -90.3575 115° Southeast 275 316 4,800 -1,800 Descending Houston Center
01:00PM 30.1208 -90.2664 112° Southeast 267 307 1,900 -1,440 Descending Houston Center
01:00PM 30.1006 -90.2250 120° Southeast 159 183 2,000 60 Climbing Houston Center
01:01PM 30.0944 -90.2203 146° Southeast 219 252 2,000 -540 Level Houston Center
01:01PM 30.0631 -90.2239 186° South 134 154 1,500 -720 Descending Houston Center
01:02PM 30.0558 -90.2269 200° South 167 192 1,300 -1,020 Descending Houston Center
01:02PM 30.0175 -90.2403 197° South 144 166 400 -1,140 Descending Houston Center
01:05PM 29.9833 -90.2500 101° East  Level FlightAware Approximate
01:12PM 29.9934 -90.2580 101° East  Level Estimated